Pagrindinis puslapis
METAR-TAF:

METAR-TAF

Oro uostai :

Čiklajas, Peru

platuma: 06-47S, ilguma: 079-50W, Aukštis: 29 m

Dabartinis oras

Ataskaita buvo paskelbta 23 minutes, ne 04:00 UTC
Vėjas 10 kt iš Pietų
Temperatūra 22°C
Drėgmė 73%
Slėgis 1012 hPa
Matomumas 10 km arba daugiau
nėra debesų žemiau 1500 m ir nėra kamuolinių lietaus debesų

METAR: SPHI 220400Z 19010KT CAVOK 22/17 Q1012 RMK BIRD HAZARD RWY 19/01 PP000

Laikas: 23:23 (04:23 UTC)

Prognozė

Ataskaita buvo paskelbta 5 valandos ir 31 minutes, ne 22:52 UTC
Prognozė galioja nuo 22 metu 00 UTC su 22 metu 24 UTC
Vėjas 17 kt iš Pietų
Matomumas 10 km arba daugiau
nėra debesų žemiau 1500 m ir nėra kamuolinių lietaus debesų
Nuo 22 metu 0800 UTC
Vėjas 8 kt iš Pietų
Matomumas 10 km arba daugiau
nėra debesų žemiau 1500 m ir nėra kamuolinių lietaus debesų
Nuo 22 metu 1500 UTC
Vėjas 16 kt iš Pietų
Matomumas 10 km arba daugiau
nėra debesų žemiau 1500 m ir nėra kamuolinių lietaus debesų

TAF: SPHI 212252Z 2200/2224 18017KT CAVOK TX28/2219Z TN22/2211Z FM220800 18008KT CAVOK FM221500 19016KT CAVOK

Orai ataskaitas ir orų prognozės (METAR, TAF).

turimą stotys yra geltonos ir raudonos taškus žemėlapyje.

Perkelti pele per norėdami pamatyti stoties vardą.

Tada spustelėkite, norėdami matyti oro stebėjimo ir prognozės.

Norėdami pakeisti žemėlapį: spustelėkite ant žalios mygtukų su juodo kryžiaus žemyn,; žalią mygtuką su brūkšneliu, jei norite nutolinti; arba žalių rodyklių gretimoms žemėlapius.


METAR-TAF: